createdAt,value
2022-08-20T00:01:41.953Z,22.41
2022-08-20T00:03:50.066Z,22.24
2022-08-20T00:05:58.824Z,22.20
2022-08-20T00:08:04.087Z,22.15
2022-08-20T00:10:09.456Z,22.14
2022-08-20T00:12:17.005Z,22.14
2022-08-20T00:14:21.847Z,22.15
2022-08-20T00:16:27.356Z,22.18
2022-08-20T00:18:30.847Z,22.19
2022-08-20T00:20:37.600Z,22.22
2022-08-20T00:22:42.051Z,22.16
2022-08-20T00:24:45.495Z,22.13
2022-08-20T00:26:52.499Z,22.12
2022-08-20T00:28:56.263Z,22.14
2022-08-20T00:31:01.111Z,22.18
2022-08-20T00:33:06.952Z,22.26
2022-08-20T00:35:13.052Z,22.22
2022-08-20T00:37:16.660Z,22.19
2022-08-20T00:39:20.050Z,22.15
2022-08-20T00:41:25.624Z,22.22
2022-08-20T00:43:35.664Z,22.03
2022-08-20T00:45:39.012Z,21.67
2022-08-20T00:47:51.054Z,21.95
2022-08-20T00:49:55.018Z,21.99
2022-08-20T00:52:03.018Z,21.92
2022-08-20T00:54:10.846Z,21.91
2022-08-20T00:56:14.963Z,21.87
2022-08-20T00:58:19.800Z,21.62
2022-08-20T01:00:26.938Z,21.55
2022-08-20T01:02:32.496Z,21.56
2022-08-20T01:04:38.095Z,21.71
2022-08-20T01:06:42.626Z,21.71
2022-08-20T01:08:45.988Z,21.74
2022-08-20T01:10:53.693Z,21.69
2022-08-20T01:12:59.899Z,21.73
2022-08-20T01:15:04.619Z,21.81
2022-08-20T01:17:09.650Z,21.86
2022-08-20T01:19:29.802Z,21.89
2022-08-20T01:21:35.188Z,21.84
2022-08-20T01:23:44.611Z,21.91
2022-08-20T01:25:51.507Z,21.92
2022-08-20T01:27:57.321Z,21.93
2022-08-20T01:30:06.070Z,21.91
2022-08-20T01:32:10.816Z,21.90
2022-08-20T01:34:16.873Z,21.88
2022-08-20T01:36:25.555Z,21.85
2022-08-20T01:38:29.574Z,21.84
2022-08-20T01:40:49.376Z,21.95
2022-08-20T01:42:59.115Z,21.86
2022-08-20T01:45:03.773Z,21.79
2022-08-20T01:47:15.271Z,21.75
2022-08-20T01:49:23.877Z,21.77
2022-08-20T01:51:31.174Z,21.76
2022-08-20T01:53:37.398Z,21.77
2022-08-20T01:55:40.876Z,21.84
2022-08-20T01:57:44.776Z,21.79
2022-08-20T01:59:51.471Z,21.76
2022-08-20T02:01:55.110Z,21.84
2022-08-20T02:03:58.636Z,21.81
2022-08-20T02:06:02.124Z,21.75
2022-08-20T02:08:05.948Z,21.67
2022-08-20T02:10:11.975Z,21.54
2022-08-20T02:12:16.648Z,21.49
2022-08-20T02:14:20.596Z,21.51
2022-08-20T02:16:29.113Z,21.42
2022-08-20T02:18:32.720Z,21.37
2022-08-20T02:20:37.342Z,21.43
2022-08-20T02:24:53.558Z,21.56
2022-08-20T02:26:57.320Z,21.63
2022-08-20T02:29:01.197Z,21.63
2022-08-20T02:31:08.322Z,21.60
2022-08-20T02:33:15.296Z,21.52
2022-08-20T02:35:20.380Z,21.54
2022-08-20T02:37:23.708Z,21.61
2022-08-20T02:39:27.704Z,21.69
2022-08-20T02:41:31.104Z,21.60
2022-08-20T02:43:34.865Z,21.67
2022-08-20T02:45:43.931Z,21.63
2022-08-20T02:47:48.268Z,21.66
2022-08-20T02:49:54.208Z,21.65
2022-08-20T02:51:57.548Z,21.50
2022-08-20T02:54:01.065Z,21.57
2022-08-20T02:56:06.527Z,21.57
2022-08-20T02:58:10.156Z,21.54
2022-08-20T03:00:17.171Z,21.55
2022-08-20T03:02:21.584Z,21.56
2022-08-20T03:04:25.004Z,21.59
2022-08-20T03:06:31.521Z,21.64
2022-08-20T03:08:35.624Z,21.65
2022-08-20T03:10:42.118Z,21.70
2022-08-20T03:12:45.523Z,21.53
2022-08-20T03:14:51.958Z,21.47
2022-08-20T03:16:55.808Z,21.54
2022-08-20T03:18:59.635Z,21.62
2022-08-20T03:21:03.660Z,21.56
2022-08-20T03:23:08.628Z,21.50
2022-08-20T03:25:12.502Z,21.58
2022-08-20T03:27:15.888Z,21.62
2022-08-20T03:29:19.321Z,21.62
2022-08-20T03:31:22.703Z,21.58
2022-08-20T03:33:26.665Z,21.59
2022-08-20T03:35:32.060Z,21.58
2022-08-20T03:37:37.086Z,21.59
2022-08-20T03:39:44.502Z,21.56
2022-08-20T03:41:48.386Z,21.55
2022-08-20T03:43:52.338Z,21.48
2022-08-20T03:45:56.140Z,21.42
2022-08-20T03:48:01.693Z,21.42
2022-08-20T03:50:08.105Z,21.50
2022-08-20T03:52:11.762Z,21.53
2022-08-20T03:54:15.186Z,21.54
2022-08-20T03:56:19.949Z,21.53
2022-08-20T03:58:34.747Z,21.53
2022-08-20T04:00:42.293Z,21.50
2022-08-20T04:02:46.613Z,21.59
2022-08-20T04:04:50.103Z,21.62
2022-08-20T04:06:54.308Z,21.67
2022-08-20T04:08:57.956Z,21.67
2022-08-20T04:11:01.875Z,21.63
2022-08-20T04:13:08.027Z,21.63
2022-08-20T04:15:18.603Z,21.68
2022-08-20T04:17:32.277Z,21.63
2022-08-20T04:19:38.055Z,21.64
2022-08-20T04:21:41.445Z,21.67
2022-08-20T04:23:44.874Z,21.68
2022-08-20T04:25:50.190Z,21.61
2022-08-20T04:27:53.602Z,21.57
2022-08-20T04:29:58.325Z,21.56
2022-08-20T04:32:05.924Z,21.53
2022-08-20T04:34:09.545Z,21.45
2022-08-20T04:36:14.085Z,21.36
2022-08-20T04:38:19.911Z,21.38
2022-08-20T04:40:52.613Z,21.32
2022-08-20T04:42:56.219Z,21.35
2022-08-20T04:45:01.105Z,21.34
2022-08-20T04:47:04.586Z,21.26
2022-08-20T04:49:08.689Z,21.24
2022-08-20T04:51:14.835Z,21.12
2022-08-20T04:53:25.655Z,21.20
2022-08-20T04:55:29.407Z,21.28
2022-08-20T04:57:33.500Z,21.26
2022-08-20T04:59:36.955Z,21.20
2022-08-20T05:01:41.869Z,21.12
2022-08-20T05:03:45.960Z,21.00
2022-08-20T05:05:50.284Z,20.83
2022-08-20T05:07:55.430Z,20.54
2022-08-20T05:10:05.500Z,20.49
2022-08-20T05:12:09.716Z,20.50
2022-08-20T05:14:13.904Z,20.53
2022-08-20T05:16:18.050Z,20.62
2022-08-20T05:18:26.307Z,20.53
2022-08-20T05:20:31.373Z,20.65
2022-08-20T05:22:34.815Z,20.45
2022-08-20T05:24:39.649Z,20.54
2022-08-20T05:26:43.024Z,20.62
2022-08-20T05:28:57.854Z,20.61
2022-08-20T05:31:07.113Z,20.58
2022-08-20T05:33:14.000Z,20.52
2022-08-20T05:35:19.248Z,20.43
2022-08-20T05:37:22.696Z,20.40
2022-08-20T05:39:26.093Z,20.43
2022-08-20T05:41:30.740Z,20.39
2022-08-20T05:43:34.473Z,20.33
2022-08-20T05:45:40.396Z,20.26
2022-08-20T05:47:44.873Z,19.93
2022-08-20T05:49:49.122Z,20.18
2022-08-20T05:51:54.135Z,20.18
2022-08-20T05:53:59.222Z,20.27
2022-08-20T05:56:03.273Z,20.30
2022-08-20T05:58:09.641Z,20.27
2022-08-20T06:00:15.215Z,20.20
2022-08-20T06:02:38.232Z,20.14
2022-08-20T06:04:41.955Z,20.23
2022-08-20T06:06:47.143Z,20.07
2022-08-20T06:08:52.588Z,20.11
2022-08-20T06:10:56.814Z,20.15
2022-08-20T06:13:00.209Z,20.17
2022-08-20T06:15:03.682Z,20.10
2022-08-20T06:17:10.697Z,20.15
2022-08-20T06:19:16.816Z,20.23
2022-08-20T06:21:28.744Z,20.17
2022-08-20T06:23:50.372Z,20.21
2022-08-20T06:25:56.997Z,20.14
2022-08-20T06:28:00.456Z,20.06
2022-08-20T06:30:04.605Z,19.96
2022-08-20T06:32:08.568Z,19.94
2022-08-20T06:34:12.105Z,20.02
2022-08-20T06:36:15.544Z,20.04
2022-08-20T06:38:22.536Z,20.20
2022-08-20T06:40:29.468Z,20.21
2022-08-20T06:42:34.494Z,20.28
2022-08-20T06:44:38.088Z,20.08
2022-08-20T06:46:43.921Z,19.97
2022-08-20T06:48:47.372Z,20.02
2022-08-20T06:50:51.186Z,19.90
2022-08-20T06:52:54.636Z,20.06
2022-08-20T06:54:58.110Z,20.02
2022-08-20T06:57:01.991Z,19.98
2022-08-20T06:59:06.841Z,19.97
2022-08-20T07:01:12.147Z,19.69
2022-08-20T07:03:16.232Z,19.83
2022-08-20T07:05:20.082Z,20.03
2022-08-20T07:07:23.563Z,20.08
2022-08-20T07:09:28.661Z,19.96
2022-08-20T07:11:32.095Z,19.83
2022-08-20T07:13:36.605Z,19.91
2022-08-20T07:15:41.424Z,19.94
2022-08-20T07:17:50.788Z,19.97
2022-08-20T07:19:54.196Z,19.78
2022-08-20T07:21:57.568Z,19.54
2022-08-20T07:24:01.163Z,19.59
2022-08-20T07:26:05.489Z,19.61
2022-08-20T07:28:14.310Z,19.50
2022-08-20T07:30:55.820Z,19.56
2022-08-20T07:33:02.447Z,19.48
2022-08-20T07:35:14.265Z,19.65
2022-08-20T07:37:17.729Z,19.80
2022-08-20T07:39:21.273Z,19.67
2022-08-20T07:41:25.896Z,19.64
2022-08-20T07:43:29.563Z,19.85
2022-08-20T07:45:32.938Z,19.82
2022-08-20T07:47:36.478Z,19.87
2022-08-20T07:49:41.681Z,19.78
2022-08-20T07:51:45.808Z,19.85
2022-08-20T07:53:50.670Z,19.80
2022-08-20T07:55:59.308Z,19.92
2022-08-20T07:58:08.721Z,19.99
2022-08-20T08:00:13.789Z,20.01
2022-08-20T08:02:17.351Z,20.12
2022-08-20T08:04:20.858Z,20.11
2022-08-20T08:06:29.198Z,19.94
2022-08-20T08:08:34.472Z,19.94
2022-08-20T08:10:38.190Z,19.99
2022-08-20T08:12:47.674Z,19.77
2022-08-20T08:14:51.487Z,19.85
2022-08-20T08:16:57.303Z,20.09
2022-08-20T08:19:01.960Z,20.22
2022-08-20T08:21:07.188Z,20.51
2022-08-20T08:23:24.789Z,20.31
2022-08-20T08:25:35.599Z,20.11
2022-08-20T08:27:39.004Z,20.01
2022-08-20T08:29:43.344Z,19.86
2022-08-20T08:31:46.861Z,19.71
2022-08-20T08:33:50.420Z,19.82
2022-08-20T08:35:54.333Z,19.82
2022-08-20T08:37:59.880Z,19.91
2022-08-20T08:40:05.684Z,19.88
2022-08-20T08:42:23.271Z,19.65
2022-08-20T08:44:29.706Z,19.49
2022-08-20T08:46:40.530Z,19.62
2022-08-20T08:48:47.699Z,19.64
2022-08-20T08:50:54.866Z,19.62
2022-08-20T08:53:01.269Z,19.79
2022-08-20T08:55:15.879Z,19.78
2022-08-20T08:57:19.994Z,19.75
2022-08-20T08:59:24.458Z,19.84
2022-08-20T09:01:54.541Z,19.78
2022-08-20T09:03:54.516Z,19.75
2022-08-20T09:06:00.608Z,19.74
2022-08-20T09:08:06.754Z,19.76
2022-08-20T09:10:11.799Z,19.76
2022-08-20T09:12:18.907Z,19.90
2022-08-20T09:14:24.921Z,19.80
2022-08-20T09:16:29.943Z,19.83
2022-08-20T09:18:52.883Z,19.84
2022-08-20T09:20:56.623Z,19.71
2022-08-20T09:23:00.064Z,19.76
2022-08-20T09:25:03.896Z,19.83
2022-08-20T09:27:08.930Z,19.91
2022-08-20T09:29:12.433Z,19.85
2022-08-20T09:31:15.835Z,19.82
2022-08-20T09:33:21.786Z,19.72
2022-08-20T09:35:25.229Z,19.85
2022-08-20T09:37:36.610Z,19.79
2022-08-20T09:39:41.573Z,19.82
2022-08-20T09:41:45.051Z,19.88
2022-08-20T09:43:49.901Z,19.84
2022-08-20T09:45:53.654Z,19.94
2022-08-20T09:47:57.439Z,20.07
2022-08-20T09:50:01.603Z,19.87
2022-08-20T09:52:07.569Z,19.62
2022-08-20T09:54:11.024Z,19.91
2022-08-20T09:56:14.667Z,20.11
2022-08-20T09:58:22.682Z,20.18
2022-08-20T10:00:27.709Z,20.40
2022-08-20T10:02:31.108Z,20.57
2022-08-20T10:04:34.538Z,20.67
2022-08-20T10:06:41.199Z,20.71
2022-08-20T10:08:44.755Z,20.83
2022-08-20T10:10:53.559Z,20.92
2022-08-20T10:12:57.121Z,21.03
2022-08-20T10:15:00.506Z,20.93
2022-08-20T10:17:05.606Z,20.88
2022-08-20T10:19:09.044Z,20.97
2022-08-20T10:21:13.305Z,20.90
2022-08-20T10:23:16.852Z,20.96
2022-08-20T10:25:20.555Z,21.21
2022-08-20T10:27:23.929Z,21.27
2022-08-20T10:29:28.952Z,21.34
2022-08-20T10:31:32.350Z,21.29
2022-08-20T10:33:37.293Z,21.22
2022-08-20T10:35:41.152Z,21.28
2022-08-20T10:37:45.123Z,21.24
2022-08-20T10:39:49.234Z,21.11
2022-08-20T10:41:52.995Z,21.01
2022-08-20T10:43:56.487Z,21.10
2022-08-20T10:45:59.994Z,21.22
2022-08-20T10:48:04.134Z,21.35
2022-08-20T10:50:13.631Z,21.64
2022-08-20T10:52:17.342Z,21.59
2022-08-20T10:54:20.822Z,21.67
2022-08-20T10:56:24.295Z,21.76
2022-08-20T10:58:39.653Z,22.02
2022-08-20T11:00:43.442Z,22.54
2022-08-20T11:02:46.944Z,22.89
2022-08-20T11:04:51.304Z,22.96
2022-08-20T11:06:56.285Z,22.93
2022-08-20T11:08:59.734Z,22.85
2022-08-20T11:11:03.435Z,22.72
2022-08-20T11:13:09.259Z,22.65
2022-08-20T11:15:12.672Z,22.67
2022-08-20T11:17:20.961Z,23.05
2022-08-20T11:19:24.375Z,22.97
2022-08-20T11:21:27.788Z,23.09
2022-08-20T11:23:32.671Z,23.30
2022-08-20T11:25:36.764Z,23.44
2022-08-20T11:27:42.720Z,23.57
2022-08-20T11:29:46.286Z,23.57
2022-08-20T11:31:49.957Z,23.69
2022-08-20T11:33:53.427Z,23.64
2022-08-20T11:35:56.964Z,23.47
2022-08-20T11:38:00.818Z,23.19
2022-08-20T11:40:08.654Z,23.17
2022-08-20T11:42:12.271Z,23.15
2022-08-20T11:44:20.102Z,23.01
2022-08-20T11:46:28.027Z,23.13
2022-08-20T11:48:32.202Z,23.04
2022-08-20T11:50:35.689Z,22.89
2022-08-20T11:52:39.507Z,22.62
2022-08-20T11:54:44.451Z,22.63
2022-08-20T11:56:50.562Z,23.09
2022-08-20T11:58:53.991Z,23.47
2022-08-20T12:00:57.462Z,23.58
2022-08-20T12:03:01.241Z,23.70
2022-08-20T12:05:05.823Z,23.62
2022-08-20T12:07:11.219Z,23.84
2022-08-20T12:09:14.690Z,24.19
2022-08-20T12:11:18.108Z,24.35
2022-08-20T12:13:23.669Z,24.46
2022-08-20T12:15:36.384Z,24.74
2022-08-20T12:17:40.296Z,24.65
2022-08-20T12:19:44.207Z,24.83
2022-08-20T12:21:47.706Z,25.08
2022-08-20T12:23:51.269Z,25.18
2022-08-20T12:25:54.764Z,25.61
2022-08-20T12:27:59.513Z,25.39
2022-08-20T12:30:10.842Z,25.33
2022-08-20T12:32:15.013Z,25.20
2022-08-20T12:34:18.434Z,24.97
2022-08-20T12:36:22.491Z,25.24
2022-08-20T12:38:25.941Z,25.61
2022-08-20T12:40:32.476Z,25.68
2022-08-20T12:42:36.724Z,25.83
2022-08-20T12:44:40.589Z,25.62
2022-08-20T12:46:45.340Z,25.16
2022-08-20T12:48:48.955Z,24.80
2022-08-20T12:50:52.761Z,24.88
2022-08-20T12:52:57.767Z,25.24
2022-08-20T12:55:02.312Z,25.38
2022-08-20T12:57:07.996Z,25.33
2022-08-20T12:59:11.657Z,25.54
2022-08-20T13:01:15.732Z,25.55
2022-08-20T13:03:21.045Z,25.24
2022-08-20T13:05:25.125Z,25.55
2022-08-20T13:07:28.522Z,25.94
2022-08-20T13:09:32.450Z,26.07
2022-08-20T13:11:36.025Z,26.04
2022-08-20T13:13:39.468Z,26.04
2022-08-20T13:15:43.075Z,26.21
2022-08-20T13:17:46.586Z,26.07
2022-08-20T13:19:51.429Z,26.00
2022-08-20T13:21:55.609Z,26.19
2022-08-20T13:23:59.126Z,26.35
2022-08-20T13:26:02.652Z,26.45
2022-08-20T13:28:06.790Z,25.96
2022-08-20T13:30:13.304Z,26.05
2022-08-20T13:32:17.205Z,26.36
2022-08-20T13:34:20.624Z,26.62
2022-08-20T13:36:25.941Z,26.61
2022-08-20T13:38:29.396Z,26.48
2022-08-20T13:40:32.770Z,26.43
2022-08-20T13:42:36.629Z,26.67
2022-08-20T13:44:40.603Z,26.87
2022-08-20T13:46:44.007Z,26.97
2022-08-20T13:48:47.648Z,27.13
2022-08-20T13:50:51.209Z,27.08
2022-08-20T13:52:56.474Z,26.80
2022-08-20T13:55:00.551Z,27.14
2022-08-20T13:57:08.880Z,27.52
2022-08-20T13:59:12.459Z,27.64
2022-08-20T14:01:16.189Z,27.75
2022-08-20T14:03:25.211Z,27.80
2022-08-20T14:05:30.377Z,27.95
2022-08-20T14:07:33.974Z,28.16
2022-08-20T14:09:40.533Z,28.33
2022-08-20T14:11:43.954Z,28.43
2022-08-20T14:13:47.627Z,28.51
2022-08-20T14:15:51.864Z,28.31
2022-08-20T14:17:58.218Z,28.07
2022-08-20T14:20:06.900Z,27.85
2022-08-20T14:22:11.397Z,27.84
2022-08-20T14:24:14.819Z,28.12
2022-08-20T14:26:19.606Z,27.88
2022-08-20T14:28:24.818Z,27.25
2022-08-20T14:30:30.865Z,27.04
2022-08-20T14:32:34.325Z,27.06
2022-08-20T14:34:38.894Z,27.05
2022-08-20T14:36:42.415Z,26.97
2022-08-20T14:38:46.006Z,27.03
2022-08-20T14:40:50.385Z,27.19
2022-08-20T14:42:56.420Z,27.37
2022-08-20T14:45:02.212Z,27.54
2022-08-20T14:47:14.437Z,27.51
2022-08-20T14:49:18.139Z,27.82
2022-08-20T14:51:21.658Z,28.18
2022-08-20T14:53:25.091Z,28.59
2022-08-20T14:55:30.793Z,28.47
2022-08-20T14:57:35.237Z,28.30
2022-08-20T14:59:40.060Z,28.42
2022-08-20T15:01:43.713Z,28.60
2022-08-20T15:03:47.086Z,28.36
2022-08-20T15:05:50.974Z,28.13
2022-08-20T15:07:54.443Z,28.38
2022-08-20T15:10:00.410Z,28.54
2022-08-20T15:12:04.120Z,28.42
2022-08-20T15:14:07.714Z,28.46
2022-08-20T15:16:13.557Z,28.42
2022-08-20T15:18:18.458Z,28.44
2022-08-20T15:20:31.033Z,28.11
2022-08-20T15:22:34.516Z,28.23
2022-08-20T15:24:37.922Z,28.30
2022-08-20T15:26:44.011Z,28.52
2022-08-20T15:28:47.582Z,28.54
2022-08-20T15:30:50.965Z,28.84
2022-08-20T15:32:56.365Z,28.79
2022-08-20T15:35:00.784Z,28.70
2022-08-20T15:37:08.427Z,28.61
2022-08-20T15:39:11.939Z,28.65
2022-08-20T15:41:15.695Z,29.05
2022-08-20T15:43:19.166Z,28.76
2022-08-20T15:45:22.729Z,28.77
2022-08-20T15:47:29.686Z,28.77
2022-08-20T15:49:34.470Z,28.75
2022-08-20T15:51:44.253Z,28.80
2022-08-20T15:53:54.878Z,28.99
2022-08-20T15:56:05.072Z,29.08
2022-08-20T15:58:15.818Z,29.09
2022-08-20T16:00:22.455Z,28.83
2022-08-20T16:02:52.639Z,28.59
2022-08-20T16:05:11.076Z,28.79
2022-08-20T16:07:20.887Z,29.12
2022-08-20T16:09:39.307Z,29.02
2022-08-20T16:11:50.478Z,28.83
2022-08-20T16:13:57.710Z,28.74
2022-08-20T16:16:03.475Z,28.80
2022-08-20T16:18:09.864Z,28.96
2022-08-20T16:20:22.226Z,29.12
2022-08-20T16:22:29.742Z,29.23
2022-08-20T16:24:34.061Z,29.10
2022-08-20T16:27:13.877Z,29.14
2022-08-20T16:29:20.962Z,29.11
2022-08-20T16:31:29.992Z,29.06
2022-08-20T16:33:43.597Z,28.98
2022-08-20T16:35:55.645Z,28.60
2022-08-20T16:38:07.817Z,28.29
2022-08-20T16:40:21.168Z,28.45
2022-08-20T16:42:27.146Z,28.25
2022-08-20T16:44:35.541Z,28.40
2022-08-20T16:46:45.778Z,28.59
2022-08-20T16:48:56.022Z,28.53
2022-08-20T16:51:06.491Z,28.51
2022-08-20T16:53:17.833Z,28.47
2022-08-20T16:55:24.659Z,28.46
2022-08-20T16:57:29.394Z,28.57
2022-08-20T16:59:34.314Z,28.53
2022-08-20T17:01:38.360Z,28.26
2022-08-20T17:03:51.132Z,28.38
2022-08-20T17:05:58.553Z,28.50
2022-08-20T17:08:04.921Z,28.44
2022-08-20T17:10:16.466Z,28.33
2022-08-20T17:12:23.611Z,28.20
2022-08-20T17:14:27.081Z,28.47
2022-08-20T17:16:34.624Z,28.70
2022-08-20T17:18:40.798Z,28.63
2022-08-20T17:20:46.366Z,28.66
2022-08-20T17:22:52.723Z,28.35
2022-08-20T17:24:58.032Z,28.11
2022-08-20T17:27:09.054Z,27.99
2022-08-20T17:29:17.666Z,28.03
2022-08-20T17:31:38.831Z,27.92
2022-08-20T17:33:42.754Z,28.01
2022-08-20T17:35:53.535Z,28.00
2022-08-20T17:37:57.487Z,27.88
2022-08-20T17:40:10.451Z,27.61
2022-08-20T17:42:18.543Z,27.47
2022-08-20T17:44:29.273Z,27.25
2022-08-20T17:46:36.013Z,27.12
2022-08-20T17:48:44.456Z,26.87
2022-08-20T17:50:49.933Z,26.57
2022-08-20T17:52:56.421Z,26.51
2022-08-20T17:55:02.741Z,26.53
2022-08-20T17:57:12.313Z,26.44
2022-08-20T17:59:36.442Z,26.31
2022-08-20T18:01:43.549Z,26.20
2022-08-20T18:03:47.457Z,26.16
2022-08-20T18:05:57.938Z,26.17
2022-08-20T18:08:13.064Z,26.07
2022-08-20T18:10:21.798Z,25.99
2022-08-20T18:12:34.941Z,25.87
2022-08-20T18:14:50.487Z,25.92
2022-08-20T18:17:06.430Z,25.90
2022-08-20T18:19:16.361Z,25.73
2022-08-20T18:21:44.396Z,25.75
2022-08-20T18:23:53.690Z,25.60
2022-08-20T18:26:03.560Z,25.26
2022-08-20T18:28:21.494Z,25.56
2022-08-20T18:30:26.205Z,25.59
2022-08-20T18:32:32.336Z,25.57
2022-08-20T18:34:39.296Z,25.56
2022-08-20T18:36:54.417Z,25.56
2022-08-20T18:39:03.810Z,25.48
2022-08-20T18:41:10.829Z,25.49
2022-08-20T18:43:17.055Z,25.49
2022-08-20T18:45:30.010Z,25.44
2022-08-20T18:47:46.263Z,25.36
2022-08-20T18:50:01.483Z,25.36
2022-08-20T18:52:14.215Z,25.33
2022-08-20T18:54:25.018Z,25.34
2022-08-20T18:56:34.405Z,25.33
2022-08-20T18:58:53.233Z,25.25
2022-08-20T19:00:57.032Z,25.26
2022-08-20T19:03:16.996Z,25.14
2022-08-20T19:05:29.200Z,25.14
2022-08-20T19:07:48.132Z,24.91
2022-08-20T19:10:32.952Z,25.13
2022-08-20T19:13:16.229Z,24.92
2022-08-20T19:15:23.551Z,24.80
2022-08-20T19:17:45.975Z,24.56
2022-08-20T19:19:59.573Z,24.52
2022-08-20T19:22:04.240Z,24.52
2022-08-20T19:24:09.418Z,24.45
2022-08-20T19:26:24.810Z,24.35
2022-08-20T19:28:32.879Z,24.35
2022-08-20T19:30:43.419Z,24.31
2022-08-20T19:32:52.808Z,24.18
2022-08-20T19:34:57.915Z,24.09
2022-08-20T19:37:27.995Z,23.78
2022-08-20T19:39:29.785Z,23.56
2022-08-20T19:41:42.369Z,23.45
2022-08-20T19:43:46.415Z,23.49
2022-08-20T19:45:54.279Z,23.59
2022-08-20T19:48:10.458Z,23.59
2022-08-20T19:50:21.355Z,23.48
2022-08-20T19:52:35.903Z,23.48
2022-08-20T19:54:47.854Z,23.45
2022-08-20T19:56:56.249Z,23.38
2022-08-20T19:59:01.954Z,23.26
2022-08-20T20:01:18.128Z,23.31
2022-08-20T20:03:25.058Z,23.30
2022-08-20T20:05:28.546Z,23.26
2022-08-20T20:07:40.927Z,23.23
2022-08-20T20:09:44.713Z,23.18
2022-08-20T20:11:54.437Z,23.19
2022-08-20T20:14:02.987Z,23.19
2022-08-20T20:16:08.434Z,23.22
2022-08-20T20:18:13.218Z,23.18
2022-08-20T20:20:24.214Z,23.15
2022-08-20T20:22:31.109Z,23.09
2022-08-20T20:24:44.092Z,22.96
2022-08-20T20:26:49.361Z,22.96
2022-08-20T20:28:55.683Z,22.87
2022-08-20T20:31:08.875Z,22.84
2022-08-20T20:33:16.681Z,22.67
2022-08-20T20:35:28.970Z,22.66
2022-08-20T20:37:39.136Z,22.61
2022-08-20T20:40:04.337Z,22.54
2022-08-20T20:42:10.804Z,22.54
2022-08-20T20:44:20.926Z,22.60
2022-08-20T20:46:28.698Z,22.57
2022-08-20T20:48:43.060Z,22.55
2022-08-20T20:50:48.410Z,22.54
2022-08-20T20:52:55.565Z,22.60
2022-08-20T20:55:09.609Z,22.56
2022-08-20T20:57:37.744Z,22.52
2022-08-20T20:59:43.053Z,22.54
2022-08-20T21:01:48.767Z,22.52
2022-08-20T21:03:53.864Z,22.41
2022-08-20T21:05:57.764Z,22.49
2022-08-20T21:08:03.750Z,22.35
2022-08-20T21:10:07.986Z,22.43
2022-08-20T21:12:13.672Z,22.38
2022-08-20T21:14:18.244Z,22.27
2022-08-20T21:16:21.721Z,22.25
2022-08-20T21:18:26.645Z,22.20
2022-08-20T21:20:30.397Z,22.15
2022-08-20T21:22:33.784Z,22.12
2022-08-20T21:24:37.285Z,22.08
2022-08-20T21:26:40.834Z,21.91
2022-08-20T21:28:44.242Z,21.63
2022-08-20T21:30:47.790Z,21.91
2022-08-20T21:33:01.168Z,21.88
2022-08-20T21:35:07.153Z,21.87
2022-08-20T21:37:10.622Z,21.84
2022-08-20T21:39:14.489Z,21.86
2022-08-20T21:41:18.216Z,21.80
2022-08-20T21:43:33.106Z,21.71
2022-08-20T21:45:37.090Z,21.64
2022-08-20T21:47:41.103Z,21.65
2022-08-20T21:49:44.818Z,21.64
2022-08-20T21:51:50.650Z,21.40
2022-08-20T21:53:54.036Z,21.27
2022-08-20T21:55:57.752Z,21.29
2022-08-20T21:58:01.502Z,21.32
2022-08-20T22:00:15.814Z,21.34
2022-08-20T22:02:21.151Z,21.42
2022-08-20T22:04:24.641Z,21.45
2022-08-20T22:06:28.260Z,21.20
2022-08-20T22:08:33.741Z,21.48
2022-08-20T22:10:37.288Z,21.50
2022-08-20T22:12:40.879Z,21.48
2022-08-20T22:14:44.597Z,21.55
2022-08-20T22:16:48.014Z,21.35
2022-08-20T22:18:52.118Z,21.55
2022-08-20T22:20:55.630Z,21.47
2022-08-20T22:22:59.385Z,21.50
2022-08-20T22:25:04.325Z,21.42
2022-08-20T22:27:10.867Z,21.33
2022-08-20T22:29:14.413Z,21.28
2022-08-20T22:31:20.637Z,21.07
2022-08-20T22:33:24.844Z,21.19
2022-08-20T22:35:28.664Z,21.03
2022-08-20T22:37:33.257Z,21.40
2022-08-20T22:39:38.743Z,21.59
2022-08-20T22:41:43.718Z,21.69
2022-08-20T22:43:56.949Z,21.91
2022-08-20T22:46:02.979Z,22.13
2022-08-20T22:48:08.023Z,22.10
2022-08-20T22:50:12.116Z,22.24
2022-08-20T22:52:15.627Z,22.31
2022-08-20T22:54:22.132Z,22.32
2022-08-20T22:56:26.073Z,22.35
2022-08-20T22:58:31.527Z,22.24
2022-08-20T23:00:36.246Z,22.16
2022-08-20T23:02:40.523Z,22.13
2022-08-20T23:04:44.169Z,22.00
2022-08-20T23:06:47.669Z,22.12
2022-08-20T23:08:51.132Z,22.15
2022-08-20T23:10:55.048Z,22.22
2022-08-20T23:12:59.107Z,22.31
2022-08-20T23:15:05.193Z,22.24
2022-08-20T23:17:13.748Z,22.11
2022-08-20T23:19:21.624Z,22.23
2022-08-20T23:21:25.561Z,21.89
2022-08-20T23:23:29.139Z,21.84
2022-08-20T23:25:33.086Z,21.75
2022-08-20T23:27:42.336Z,21.56
2022-08-20T23:29:45.900Z,21.67
2022-08-20T23:31:51.384Z,21.62
2022-08-20T23:33:54.823Z,21.80
2022-08-20T23:36:00.409Z,21.54
2022-08-20T23:38:04.498Z,21.18
2022-08-20T23:40:09.546Z,21.05
2022-08-20T23:42:13.132Z,20.85
2022-08-20T23:44:26.274Z,20.72
2022-08-20T23:46:34.621Z,20.67
2022-08-20T23:48:39.664Z,20.61
2022-08-20T23:50:43.423Z,20.50
2022-08-20T23:52:46.873Z,20.46
2022-08-20T23:54:50.585Z,20.44
2022-08-20T23:56:55.558Z,20.18
2022-08-20T23:59:00.757Z,20.53
